createdAt,value
2019-02-15T00:02:07.995Z,42.10
2019-02-15T00:04:36.384Z,37.33
2019-02-15T00:07:04.785Z,36.20
2019-02-15T00:09:33.156Z,35.05
2019-02-15T00:12:01.546Z,39.27
2019-02-15T00:14:33.004Z,36.30
2019-02-15T00:17:01.393Z,37.95
2019-02-15T00:19:31.411Z,38.73
2019-02-15T00:21:59.800Z,40.20
2019-02-15T00:24:28.183Z,38.02
2019-02-15T00:26:56.568Z,39.10
2019-02-15T00:29:24.966Z,40.90
2019-02-15T00:31:53.345Z,32.53
2019-02-15T00:34:21.737Z,39.20
2019-02-15T00:36:50.119Z,34.78
2019-02-15T00:39:18.511Z,35.65
2019-02-15T00:41:46.904Z,39.85
2019-02-15T00:44:15.297Z,36.23
2019-02-15T00:46:45.307Z,32.00
2019-02-15T00:49:15.348Z,33.18
2019-02-15T00:51:48.104Z,39.05
2019-02-15T00:54:26.796Z,34.20
2019-02-15T00:57:02.545Z,38.98
2019-02-15T00:59:35.340Z,35.92
2019-02-15T01:02:14.609Z,29.95
2019-02-15T01:04:47.441Z,36.55
2019-02-15T01:07:32.471Z,32.40
2019-02-15T01:10:05.473Z,33.75
2019-02-15T01:12:50.773Z,39.70
2019-02-15T01:15:19.243Z,34.27
2019-02-15T01:17:47.629Z,36.73
2019-02-15T01:20:16.026Z,33.80
2019-02-15T01:22:44.404Z,35.15
2019-02-15T01:25:12.804Z,33.63
2019-02-15T01:27:42.823Z,36.35
2019-02-15T01:30:12.856Z,32.60
2019-02-15T01:32:42.886Z,33.65
2019-02-15T01:35:15.591Z,30.48
2019-02-15T01:38:02.340Z,37.45
2019-02-15T01:40:38.282Z,43.13
2019-02-15T01:43:08.311Z,31.70
2019-02-15T01:45:38.373Z,34.83
2019-02-15T01:48:06.800Z,34.83
2019-02-15T01:50:35.191Z,35.05
2019-02-15T01:53:03.576Z,33.28
2019-02-15T01:55:31.968Z,41.23
2019-02-15T01:58:00.347Z,33.33
2019-02-15T02:00:30.465Z,32.88
2019-02-15T02:02:58.844Z,36.13
2019-02-15T02:05:27.236Z,33.78
2019-02-15T02:07:55.614Z,32.05
2019-02-15T02:10:24.010Z,39.50
2019-02-15T02:12:52.392Z,35.05
2019-02-15T02:15:20.787Z,33.83
2019-02-15T02:17:49.168Z,33.40
2019-02-15T02:20:17.560Z,39.05
2019-02-15T02:22:45.940Z,35.92
2019-02-15T02:25:14.336Z,38.15
2019-02-15T02:27:42.721Z,36.48
2019-02-15T02:30:11.264Z,36.42
2019-02-15T02:32:39.647Z,37.95
2019-02-15T02:35:08.729Z,35.03
2019-02-15T02:37:37.108Z,32.20
2019-02-15T02:40:07.946Z,36.13
2019-02-15T02:42:36.329Z,35.20
2019-02-15T02:45:06.759Z,31.85
2019-02-15T02:50:02.985Z,32.67
2019-02-15T02:52:31.356Z,36.98
2019-02-15T02:54:59.744Z,34.78
2019-02-15T02:57:28.130Z,31.30
2019-02-15T02:59:56.514Z,38.67
2019-02-15T03:02:24.908Z,33.38
2019-02-15T03:04:53.289Z,31.33
2019-02-15T03:07:21.713Z,40.00
2019-02-15T03:09:50.101Z,33.70
2019-02-15T03:12:18.493Z,34.27
2019-02-15T03:14:46.881Z,31.62
2019-02-15T03:17:15.264Z,38.53
2019-02-15T03:19:43.659Z,32.15
2019-02-15T03:22:12.037Z,32.42
2019-02-15T03:24:40.425Z,36.23
2019-02-15T03:27:08.821Z,35.78
2019-02-15T03:29:37.201Z,34.53
2019-02-15T03:32:05.601Z,33.33
2019-02-15T03:34:36.232Z,32.95
2019-02-15T03:37:06.056Z,36.15
2019-02-15T03:39:39.141Z,33.65
2019-02-15T03:42:09.178Z,40.25
2019-02-15T03:44:37.634Z,39.60
2019-02-15T03:47:06.018Z,41.90
2019-02-15T03:49:34.395Z,44.10
2019-02-15T03:52:02.792Z,42.48
2019-02-15T03:54:31.442Z,41.80
2019-02-15T03:56:59.901Z,34.73
2019-02-15T03:59:28.641Z,49.40
2019-02-15T04:01:57.101Z,39.83
2019-02-15T04:04:25.707Z,43.33
2019-02-15T04:06:54.114Z,34.95
2019-02-15T04:09:22.491Z,39.08
2019-02-15T04:11:50.877Z,37.45
2019-02-15T04:14:19.270Z,46.60
2019-02-15T04:16:47.916Z,41.53
2019-02-15T04:19:16.303Z,42.65
2019-02-15T04:21:44.695Z,68.67
2019-02-15T04:24:13.639Z,62.25
2019-02-15T04:26:42.143Z,57.80
2019-02-15T04:29:10.529Z,54.55
2019-02-15T04:31:38.905Z,40.35
2019-02-15T04:34:07.296Z,42.93
2019-02-15T04:36:35.686Z,41.70
2019-02-15T04:39:04.789Z,34.18
2019-02-15T04:41:33.438Z,40.63
2019-02-15T04:44:01.822Z,46.08
2019-02-15T04:46:30.204Z,62.10
2019-02-15T04:48:58.714Z,42.58
2019-02-15T04:51:27.058Z,44.27
2019-02-15T04:53:55.440Z,53.90
2019-02-15T04:56:23.829Z,43.68
2019-02-15T04:58:52.230Z,72.35
2019-02-15T05:01:20.614Z,81.02
2019-02-15T05:03:49.022Z,71.55
2019-02-15T05:06:17.463Z,57.67
2019-02-15T05:08:45.849Z,52.50
2019-02-15T05:11:14.237Z,51.15
2019-02-15T05:13:42.632Z,42.40
2019-02-15T05:16:11.004Z,39.35
2019-02-15T05:18:39.403Z,43.02
2019-02-15T05:21:07.790Z,51.35
2019-02-15T05:23:36.189Z,40.03
2019-02-15T05:26:04.560Z,38.42
2019-02-15T05:28:32.952Z,33.55
2019-02-15T05:31:01.340Z,45.43
2019-02-15T05:33:29.736Z,53.75
2019-02-15T05:35:58.119Z,51.75
2019-02-15T05:38:26.508Z,63.52
2019-02-15T05:40:54.900Z,170.35
2019-02-15T05:43:23.291Z,225.13
2019-02-15T05:45:51.688Z,329.20
2019-02-15T05:48:20.345Z,397.85
2019-02-15T05:50:48.745Z,436.58
2019-02-15T05:53:17.128Z,385.50
2019-02-15T05:55:45.529Z,325.57
2019-02-15T05:58:13.916Z,302.25
2019-02-15T06:00:42.333Z,346.45
2019-02-15T06:03:10.722Z,279.57
2019-02-15T06:05:39.117Z,253.22
2019-02-15T06:08:07.504Z,202.78
2019-02-15T06:10:35.888Z,163.72
2019-02-15T06:13:04.276Z,120.28
2019-02-15T06:15:32.677Z,100.30
2019-02-15T06:18:01.070Z,121.05
2019-02-15T06:20:29.463Z,104.53
2019-02-15T06:22:57.851Z,100.82
2019-02-15T06:25:26.561Z,65.50
2019-02-15T06:27:55.026Z,69.92
2019-02-15T06:30:23.418Z,77.58
2019-02-15T06:32:51.801Z,70.42
2019-02-15T06:35:20.675Z,70.70
2019-02-15T06:37:49.391Z,61.50
2019-02-15T06:40:17.777Z,68.45
2019-02-15T06:42:46.160Z,75.12
2019-02-15T06:45:24.018Z,62.60
2019-02-15T06:47:44.673Z,70.80
2019-02-15T06:50:13.079Z,73.45
2019-02-15T06:52:41.468Z,51.70
2019-02-15T06:55:09.856Z,46.90
2019-02-15T06:57:38.575Z,49.53
2019-02-15T07:00:14.458Z,37.23
2019-02-15T07:02:44.552Z,35.95
2019-02-15T07:05:17.283Z,38.25
2019-02-15T07:07:45.919Z,39.75
2019-02-15T07:10:14.305Z,41.48
2019-02-15T07:12:42.692Z,37.53
2019-02-15T07:15:11.080Z,32.13
2019-02-15T07:17:39.468Z,34.63
2019-02-15T07:20:09.689Z,31.87
2019-02-15T07:22:38.083Z,34.33
2019-02-15T07:25:12.979Z,31.23
2019-02-15T07:27:41.386Z,32.63
2019-02-15T07:30:12.310Z,26.00
2019-02-15T07:32:40.700Z,27.17
2019-02-15T07:35:09.656Z,24.80
2019-02-15T07:37:38.059Z,24.50
2019-02-15T07:40:08.652Z,24.72
2019-02-15T07:42:37.049Z,25.00
2019-02-15T07:45:10.267Z,22.55
2019-02-15T07:47:38.664Z,25.02
2019-02-15T07:50:13.287Z,24.02
2019-02-15T07:52:41.683Z,22.22
2019-02-15T07:55:10.134Z,24.65
2019-02-15T07:57:38.519Z,24.65
2019-02-15T08:00:14.781Z,26.87
2019-02-15T08:02:43.181Z,20.55
2019-02-15T08:05:11.564Z,23.83
2019-02-15T08:07:39.953Z,21.15
2019-02-15T08:10:10.743Z,19.57
2019-02-15T08:12:39.183Z,19.48
2019-02-15T08:15:09.692Z,22.35
2019-02-15T08:17:38.088Z,22.62
2019-02-15T08:20:11.006Z,23.92
2019-02-15T08:22:39.411Z,25.95
2019-02-15T08:25:08.939Z,26.68
2019-02-15T08:27:37.397Z,22.30
2019-02-15T08:30:08.858Z,27.10
2019-02-15T08:32:37.285Z,20.08
2019-02-15T08:35:08.110Z,20.77
2019-02-15T08:37:36.500Z,21.10
2019-02-15T08:40:07.728Z,24.45
2019-02-15T08:42:36.136Z,24.72
2019-02-15T08:45:07.237Z,21.15
2019-02-15T08:47:35.679Z,26.52
2019-02-15T08:50:05.721Z,21.73
2019-02-15T08:52:34.126Z,22.85
2019-02-15T08:55:02.581Z,21.73
2019-02-15T08:57:30.972Z,22.07
2019-02-15T08:59:59.376Z,23.57
2019-02-15T09:02:27.762Z,21.60
2019-02-15T09:04:56.156Z,29.42
2019-02-15T09:07:24.801Z,28.00
2019-02-15T09:09:53.200Z,18.52
2019-02-15T09:12:21.869Z,19.48
2019-02-15T09:14:50.274Z,16.97
2019-02-15T09:17:18.941Z,19.12
2019-02-15T09:19:47.344Z,19.00
2019-02-15T09:22:15.737Z,21.30
2019-02-15T09:24:44.128Z,18.77
2019-02-15T09:27:14.158Z,20.15
2019-02-15T09:29:42.556Z,27.50
2019-02-15T09:32:10.973Z,22.58
2019-02-15T09:34:39.397Z,20.25
2019-02-15T09:37:07.792Z,21.02
2019-02-15T09:39:36.508Z,21.90
2019-02-15T09:42:04.897Z,19.80
2019-02-15T09:44:33.295Z,21.90
2019-02-15T09:47:01.685Z,20.48
2019-02-15T09:49:30.087Z,19.48
2019-02-15T09:51:58.472Z,19.52
2019-02-15T09:54:26.872Z,22.87
2019-02-15T09:56:55.265Z,24.85
2019-02-15T09:59:23.669Z,17.67
2019-02-15T10:01:52.058Z,27.17
2019-02-15T10:04:20.625Z,19.27
2019-02-15T10:06:49.013Z,18.32
2019-02-15T10:09:17.412Z,20.60
2019-02-15T10:11:45.876Z,19.48
2019-02-15T10:14:14.268Z,22.07
2019-02-15T10:16:42.662Z,21.48
2019-02-15T10:19:11.048Z,23.32
2019-02-15T10:21:39.443Z,18.07
2019-02-15T10:24:07.839Z,19.00
2019-02-15T10:26:36.248Z,18.73
2019-02-15T10:29:04.641Z,21.93
2019-02-15T10:31:33.056Z,20.50
2019-02-15T10:34:01.442Z,21.00
2019-02-15T10:36:29.844Z,20.88
2019-02-15T10:38:58.236Z,21.55
2019-02-15T10:41:26.644Z,19.52
2019-02-15T10:43:55.029Z,22.37
2019-02-15T10:46:23.424Z,18.85
2019-02-15T10:48:51.828Z,23.98
2019-02-15T10:51:20.220Z,18.87
2019-02-15T10:53:48.628Z,21.97
2019-02-15T10:56:17.032Z,20.60
2019-02-15T10:58:45.428Z,19.45
2019-02-15T11:01:13.836Z,20.43
2019-02-15T11:03:42.217Z,20.57
2019-02-15T11:06:10.619Z,21.77
2019-02-15T11:08:39.007Z,16.73
2019-02-15T11:11:07.424Z,26.50
2019-02-15T11:13:35.817Z,18.20
2019-02-15T11:16:04.224Z,20.80
2019-02-15T11:18:32.621Z,19.62
2019-02-15T11:21:01.020Z,19.82
2019-02-15T11:23:29.416Z,18.20
2019-02-15T11:25:57.819Z,16.35
2019-02-15T11:28:26.214Z,17.02
2019-02-15T11:30:54.599Z,19.57
2019-02-15T11:33:22.996Z,20.27
2019-02-15T11:35:51.392Z,15.55
2019-02-15T11:38:19.794Z,18.98
2019-02-15T11:40:48.176Z,18.67
2019-02-15T11:43:16.576Z,17.57
2019-02-15T11:45:44.977Z,18.37
2019-02-15T11:48:13.372Z,18.80
2019-02-15T11:50:41.753Z,19.98
2019-02-15T11:53:10.159Z,19.57
2019-02-15T11:55:38.548Z,19.30
2019-02-15T11:58:06.964Z,19.30
2019-02-15T12:00:36.728Z,22.27
2019-02-15T12:03:05.140Z,18.92
2019-02-15T12:05:33.534Z,19.37
2019-02-15T12:08:01.931Z,18.95
2019-02-15T12:10:30.316Z,19.37
2019-02-15T12:12:58.720Z,16.35
2019-02-15T12:15:27.109Z,13.58
2019-02-15T12:17:55.508Z,17.48
2019-02-15T12:20:23.900Z,20.35
2019-02-15T12:22:52.580Z,22.13
2019-02-15T12:25:20.963Z,16.65
2019-02-15T12:27:49.368Z,15.93
2019-02-15T12:30:17.777Z,17.52
2019-02-15T12:32:46.186Z,19.00
2019-02-15T12:35:14.577Z,17.25
2019-02-15T12:37:43.031Z,17.30
2019-02-15T12:40:12.598Z,14.83
2019-02-15T12:42:41.071Z,15.53
2019-02-15T12:45:12.550Z,14.53
2019-02-15T12:47:40.948Z,17.55
2019-02-15T12:50:15.321Z,14.03
2019-02-15T12:52:43.832Z,15.63
2019-02-15T12:55:12.276Z,16.73
2019-02-15T12:57:40.712Z,16.42
2019-02-15T13:00:14.696Z,14.65
2019-02-15T13:02:43.084Z,12.60
2019-02-15T13:05:12.645Z,15.55
2019-02-15T13:07:41.029Z,16.80
2019-02-15T13:10:12.804Z,15.10
2019-02-15T13:12:41.192Z,13.72
2019-02-15T13:15:11.468Z,10.55
2019-02-15T13:17:39.856Z,12.82
2019-02-15T13:20:09.594Z,9.18
2019-02-15T13:22:37.981Z,10.98
2019-02-15T13:25:07.522Z,10.53
2019-02-15T13:27:35.975Z,12.05
2019-02-15T13:30:12.167Z,13.62
2019-02-15T13:32:40.901Z,11.88
2019-02-15T13:35:18.571Z,11.75
2019-02-15T13:37:46.957Z,7.45
2019-02-15T13:40:15.441Z,6.33
2019-02-15T13:42:43.803Z,9.73
2019-02-15T13:45:13.582Z,10.88
2019-02-15T13:47:41.956Z,11.10
2019-02-15T13:50:12.966Z,11.43
2019-02-15T13:52:41.680Z,10.13
2019-02-15T13:55:10.747Z,9.53
2019-02-15T13:57:39.139Z,6.72
2019-02-15T14:00:13.460Z,8.13
2019-02-15T14:02:41.836Z,11.08
2019-02-15T14:05:11.998Z,8.08
2019-02-15T14:07:40.372Z,9.55
2019-02-15T14:10:14.933Z,7.75
2019-02-15T14:12:43.324Z,7.05
2019-02-15T14:15:12.348Z,4.40
2019-02-15T14:17:44.921Z,13.60
2019-02-15T14:20:12.185Z,4.75
2019-02-15T14:22:40.639Z,5.70
2019-02-15T14:25:10.880Z,4.85
2019-02-15T14:27:39.270Z,5.30
2019-02-15T14:30:14.556Z,8.80
2019-02-15T14:32:43.017Z,7.67
2019-02-15T14:35:13.467Z,5.80
2019-02-15T14:37:42.035Z,5.78
2019-02-15T14:40:11.473Z,4.72
2019-02-15T14:42:39.885Z,5.10
2019-02-15T14:45:10.194Z,5.28
2019-02-15T14:47:38.603Z,3.90
2019-02-15T14:50:08.717Z,7.47
2019-02-15T14:52:37.111Z,5.25
2019-02-15T14:55:07.342Z,9.58
2019-02-15T14:57:35.733Z,8.88
2019-02-15T15:00:05.936Z,7.08
2019-02-15T15:02:34.324Z,9.05
2019-02-15T15:05:02.712Z,4.55
2019-02-15T15:07:31.104Z,3.55
2019-02-15T15:09:59.499Z,4.80
2019-02-15T15:12:28.279Z,6.95
2019-02-15T15:14:56.664Z,6.30
2019-02-15T15:17:25.064Z,5.30
2019-02-15T15:19:53.452Z,5.37
2019-02-15T15:22:22.394Z,4.03
2019-02-15T15:24:50.792Z,4.87
2019-02-15T15:27:19.190Z,5.78
2019-02-15T15:29:47.576Z,8.55
2019-02-15T15:32:15.980Z,6.85
2019-02-15T15:34:44.368Z,10.58
2019-02-15T15:37:16.445Z,8.18
2019-02-15T15:39:42.887Z,7.55
2019-02-15T15:42:11.286Z,6.53
2019-02-15T15:44:39.680Z,10.38
2019-02-15T15:47:08.077Z,9.43
2019-02-15T15:49:36.476Z,9.08
2019-02-15T15:52:04.864Z,5.03
2019-02-15T15:54:33.260Z,6.87
2019-02-15T15:57:01.642Z,5.97
2019-02-15T15:59:30.060Z,5.97
2019-02-15T16:01:58.452Z,9.08
2019-02-15T16:04:26.848Z,12.85
2019-02-15T16:06:55.477Z,7.75
2019-02-15T16:09:23.936Z,7.83
2019-02-15T16:11:52.404Z,6.25
2019-02-15T16:14:20.830Z,10.10
2019-02-15T16:16:49.195Z,6.72
2019-02-15T16:19:17.581Z,10.80
2019-02-15T16:21:45.965Z,11.65
2019-02-15T16:24:14.361Z,8.15
2019-02-15T16:26:42.744Z,7.83
2019-02-15T16:29:11.131Z,9.30
2019-02-15T16:31:39.515Z,6.92
2019-02-15T16:34:07.914Z,13.08
2019-02-15T16:36:36.304Z,21.50
2019-02-15T16:39:05.841Z,17.67
2019-02-15T16:41:34.231Z,14.20
2019-02-15T16:44:02.621Z,19.12
2019-02-15T16:46:31.305Z,19.25
2019-02-15T16:48:59.700Z,19.70
2019-02-15T16:51:28.093Z,20.50
2019-02-15T16:53:56.492Z,18.07
2019-02-15T16:56:24.879Z,20.40
2019-02-15T16:58:53.276Z,14.80
2019-02-15T17:01:21.998Z,17.62
2019-02-15T17:06:14.465Z,17.15
2019-02-15T17:08:42.857Z,20.95
2019-02-15T17:11:11.261Z,19.75
2019-02-15T17:13:39.644Z,15.50
2019-02-15T17:16:08.044Z,19.45
2019-02-15T17:18:36.438Z,17.35
2019-02-15T17:21:04.851Z,19.35
2019-02-15T17:23:33.244Z,20.50
2019-02-15T17:26:01.645Z,16.20
2019-02-15T17:28:30.041Z,19.60
2019-02-15T17:30:58.448Z,15.10
2019-02-15T17:33:26.844Z,27.30
2019-02-15T17:35:55.237Z,19.75
2019-02-15T17:38:23.628Z,16.27
2019-02-15T17:40:52.027Z,14.68
2019-02-15T17:43:20.422Z,23.20
2019-02-15T17:45:48.821Z,17.85
2019-02-15T17:48:17.225Z,21.90
2019-02-15T17:50:45.629Z,19.25
2019-02-15T17:53:14.017Z,19.67
2019-02-15T17:55:42.424Z,21.35
2019-02-15T17:58:10.808Z,16.30
2019-02-15T18:00:39.208Z,20.48
2019-02-15T18:03:07.588Z,14.00
2019-02-15T18:05:36.005Z,22.98
2019-02-15T18:08:04.396Z,15.88
2019-02-15T18:10:32.785Z,21.35
2019-02-15T18:13:01.190Z,20.92
2019-02-15T18:15:29.568Z,19.80
2019-02-15T18:17:57.968Z,17.95
2019-02-15T18:20:26.362Z,18.20
2019-02-15T18:22:54.760Z,19.25
2019-02-15T18:25:23.154Z,17.10
2019-02-15T18:27:51.548Z,19.00
2019-02-15T18:30:19.940Z,14.13
2019-02-15T18:32:48.350Z,16.85
2019-02-15T18:35:16.729Z,17.32
2019-02-15T18:37:45.187Z,18.05
2019-02-15T18:40:13.637Z,16.00
2019-02-15T18:42:42.040Z,17.42
2019-02-15T18:45:15.590Z,16.97
2019-02-15T18:47:43.992Z,15.68
2019-02-15T18:50:12.376Z,20.25
2019-02-15T18:52:40.785Z,17.10
2019-02-15T18:55:10.417Z,16.80
2019-02-15T18:57:38.933Z,16.80
2019-02-15T19:00:15.729Z,16.55
2019-02-15T19:02:46.267Z,15.68
2019-02-15T19:05:14.720Z,17.05
2019-02-15T19:07:43.185Z,20.27
2019-02-15T19:10:17.398Z,19.60
2019-02-15T19:12:45.810Z,17.35
2019-02-15T19:15:16.031Z,20.08
2019-02-15T19:17:44.432Z,20.30
2019-02-15T19:20:15.066Z,26.65
2019-02-15T19:25:13.922Z,23.60
2019-02-15T19:27:42.311Z,20.15
2019-02-15T19:30:13.603Z,21.12
2019-02-15T19:32:42.089Z,23.87
2019-02-15T19:35:10.540Z,28.02
2019-02-15T19:37:38.928Z,20.23
2019-02-15T19:40:12.395Z,22.52
2019-02-15T19:42:42.028Z,20.25
2019-02-15T19:45:12.160Z,21.45
2019-02-15T19:47:40.580Z,23.05
2019-02-15T19:50:14.764Z,23.85
2019-02-15T19:52:43.295Z,23.35
2019-02-15T19:55:11.764Z,22.80
2019-02-15T19:57:40.152Z,22.37
2019-02-15T20:00:11.609Z,19.05
2019-02-15T20:02:40.067Z,21.20
2019-02-15T20:05:08.535Z,22.73
2019-02-15T20:07:36.937Z,20.30
2019-02-15T20:10:08.548Z,21.10
2019-02-15T20:12:37.000Z,21.42
2019-02-15T20:15:08.539Z,16.52
2019-02-15T20:17:36.925Z,17.05
2019-02-15T20:20:08.866Z,15.03
2019-02-15T20:22:37.251Z,26.65
2019-02-15T20:25:07.890Z,23.15
2019-02-15T20:30:06.192Z,18.00
2019-02-15T20:32:34.586Z,21.27
2019-02-15T20:35:03.028Z,19.80
2019-02-15T20:37:31.413Z,18.05
2019-02-15T20:39:59.805Z,15.15
2019-02-15T20:42:28.192Z,18.60
2019-02-15T20:44:56.584Z,18.30
2019-02-15T20:47:24.974Z,16.50
2019-02-15T20:49:58.178Z,16.60
2019-02-15T20:52:23.471Z,15.08
2019-02-15T20:54:51.879Z,15.32
2019-02-15T20:57:20.261Z,21.40
2019-02-15T20:59:48.965Z,13.83
2019-02-15T21:02:17.351Z,14.87
2019-02-15T21:04:45.740Z,13.50
2019-02-15T21:07:14.121Z,14.75
2019-02-15T21:09:42.517Z,14.73
2019-02-15T21:12:10.899Z,13.43
2019-02-15T21:14:39.555Z,17.80
2019-02-15T21:17:07.937Z,16.32
2019-02-15T21:19:36.330Z,13.38
2019-02-15T21:22:04.705Z,14.40
2019-02-15T21:24:33.109Z,16.15
2019-02-15T21:27:01.564Z,16.85
2019-02-15T21:29:29.951Z,16.37
2019-02-15T21:31:58.327Z,16.90
2019-02-15T21:34:26.712Z,15.43
2019-02-15T21:36:55.121Z,14.43
2019-02-15T21:39:23.510Z,15.58
2019-02-15T21:41:51.895Z,17.57
2019-02-15T21:44:20.374Z,15.50
2019-02-15T21:46:48.869Z,15.10
2019-02-15T21:49:17.283Z,14.73
2019-02-15T21:51:45.715Z,16.45
2019-02-15T21:54:14.355Z,18.80
2019-02-15T21:56:42.749Z,18.95
2019-02-15T21:59:11.131Z,17.70
2019-02-15T22:01:39.600Z,15.18
2019-02-15T22:04:07.977Z,13.60
2019-02-15T22:06:36.364Z,17.10
2019-02-15T22:09:06.099Z,15.72
2019-02-15T22:11:34.547Z,15.32
2019-02-15T22:14:03.115Z,22.13
2019-02-15T22:16:31.565Z,17.02
2019-02-15T22:18:59.951Z,16.05
2019-02-15T22:21:28.401Z,16.37
2019-02-15T22:23:56.780Z,15.13
2019-02-15T22:26:25.175Z,19.62
2019-02-15T22:28:53.556Z,16.93
2019-02-15T22:31:21.953Z,18.52
2019-02-15T22:33:50.331Z,17.70
2019-02-15T22:36:18.723Z,20.77
2019-02-15T22:38:47.110Z,16.80
2019-02-15T22:41:15.583Z,19.05
2019-02-15T22:43:44.020Z,18.57
2019-02-15T22:46:12.636Z,16.62
2019-02-15T22:48:41.022Z,20.20
2019-02-15T22:51:09.400Z,18.98
2019-02-15T22:53:37.868Z,18.10
2019-02-15T22:56:06.252Z,16.85
2019-02-15T22:58:34.654Z,21.60
2019-02-15T23:01:09.632Z,17.95
2019-02-15T23:03:38.040Z,22.85
2019-02-15T23:06:06.411Z,19.65
2019-02-15T23:08:34.804Z,19.57
2019-02-15T23:11:03.193Z,17.57
2019-02-15T23:13:31.664Z,20.70
2019-02-15T23:16:00.045Z,17.00
2019-02-15T23:18:28.501Z,19.57
2019-02-15T23:20:56.893Z,19.15
2019-02-15T23:23:25.289Z,17.67
2019-02-15T23:25:53.667Z,19.02
2019-02-15T23:28:22.077Z,18.62
2019-02-15T23:30:50.452Z,14.50
2019-02-15T23:33:18.912Z,16.15
2019-02-15T23:35:47.571Z,17.32
2019-02-15T23:38:15.964Z,17.62
2019-02-15T23:40:44.348Z,14.50
2019-02-15T23:43:12.746Z,18.55
2019-02-15T23:45:41.121Z,16.10
2019-02-15T23:48:09.518Z,13.65
2019-02-15T23:50:37.887Z,14.70
2019-02-15T23:53:06.641Z,16.55
2019-02-15T23:55:35.024Z,18.57
2019-02-15T23:58:03.411Z,17.45
